Time;durP1;ratioP1;P1;durP2;ratioP2;P2;SDS_P1;SDS_P2;PMS_P1;PMS_P2;Temp;Humidity;BMP_temperature;BMP_pressure;BME280_temperature;BME280_humidity;BME280_pressure;Samples;Min_cycle;Max_cycle;Signal;HPM_P1;HPM_P2
2023/07/30 01:45:38;;;;;;;;;;;;;;;;;;;;;
2023/07/30 05:09:45;;;;;;;25.73;7.70;;;;;;;-145.18;100.00;46644.78;5005320;28;20071;-82
2023/07/30 05:13:12;;;;;;;;;;;;;;;;;;;;;
2023/07/30 05:22:21;;;;;;;25.97;8.47;;;;;;;-145.18;100.00;46646.72;5001568;28;20076;-83
2023/07/30 05:24:57;;;;;;;;;;;;;;;;;;;;;
2023/07/30 05:41:50;;;;;;;25.53;7.73;;;;;;;-145.18;100.00;46642.81;4820855;29;20096;-84
2023/07/30 06:04:21;;;;;;;23.00;7.77;;;;;;;-145.18;100.00;46646.72;5100543;22;20045;-65
2023/07/30 06:06:47;;;;;;;24.97;8.37;;;;;;;-145.18;100.00;46644.78;5026258;28;20037;-65
2023/07/30 06:09:12;;;;;;;30.90;7.97;;;;;;;-145.18;100.00;46650.63;5030681;28;20032;-65
2023/07/30 06:11:38;;;;;;;21.97;8.37;;;;;;;-145.18;100.00;46640.88;5023497;28;20030;-65
2023/07/30 06:14:03;;;;;;;21.97;7.43;;;;;;;-145.18;100.00;46646.72;5029387;28;20161;-64
2023/07/30 06:16:28;;;;;;;23.93;6.90;;;;;;;-145.18;100.00;46640.88;5027947;28;20120;-64
2023/07/30 06:18:54;;;;;;;14.47;6.20;;;;;;;-145.18;100.00;46644.78;5033264;28;20400;-65
2023/07/30 06:21:19;;;;;;;22.00;6.77;;;;;;;-145.18;100.00;46642.81;5034788;28;20064;-65
2023/07/30 06:23:45;;;;;;;21.60;6.03;;;;;;;-145.18;100.00;46644.78;5035209;28;20053;-65
2023/07/30 06:26:10;;;;;;;28.33;6.37;;;;;;;-145.18;100.00;46644.78;5021023;28;20075;-65
2023/07/30 06:28:38;;;;;;;20.00;5.60;;;;;;;-145.18;100.00;46642.81;5030963;28;20095;-65
2023/07/30 06:31:04;;;;;;;19.37;5.07;;;;;;;-145.18;100.00;46644.78;5019209;28;20458;-65
2023/07/30 06:33:30;;;;;;;16.20;5.00;;;;;;;-145.18;100.00;46640.88;5021947;28;20040;-65
2023/07/30 06:35:55;;;;;;;19.73;4.03;;;;;;;-145.18;100.00;46644.78;4983906;28;20041;-64
2023/07/30 06:38:22;;;;;;;15.40;4.00;;;;;;;-145.18;100.00;46644.78;5027852;28;20543;-65
2023/07/30 06:40:47;;;;;;;19.00;4.67;;;;;;;-145.18;100.00;46644.78;5029188;28;20033;-65
2023/07/30 06:43:12;;;;;;;12.70;3.20;;;;;;;-145.18;100.00;46646.72;5025509;28;20421;-65
2023/07/30 06:45:38;;;;;;;24.10;3.93;;;;;;;-145.18;100.00;46648.69;5019866;28;20057;-65
2023/07/30 06:48:03;;;;;;;17.70;3.80;;;;;;;-145.18;100.00;46644.78;5026260;28;20037;-65
2023/07/30 06:50:29;;;;;;;20.57;3.90;;;;;;;-145.18;100.00;46648.69;5031384;28;20065;-65
2023/07/30 06:52:54;;;;;;;23.57;3.83;;;;;;;-145.18;100.00;46646.72;5012898;28;20030;-71
2023/07/30 06:55:19;;;;;;;15.00;3.20;;;;;;;-145.18;100.00;46642.81;5027010;28;20088;-71
2023/07/30 06:57:45;;;;;;;18.63;3.83;;;;;;;-145.18;100.00;46650.63;5028061;28;20085;-71
2023/07/30 07:00:11;;;;;;;16.63;3.90;;;;;;;-145.18;100.00;46646.72;5015596;28;20029;-71
2023/07/30 07:02:36;;;;;;;22.87;4.50;;;;;;;-145.18;100.00;46650.63;5030685;28;20053;-71
2023/07/30 07:05:02;;;;;;;24.17;4.53;;;;;;;-145.18;100.00;46648.69;5027221;28;20029;-71
2023/07/30 07:07:27;;;;;;;22.43;4.53;;;;;;;-145.18;100.00;46648.69;5016096;28;20029;-71
2023/07/30 07:09:53;;;;;;;17.10;4.93;;;;;;;-145.18;100.00;46648.69;5024576;28;20056;-71
2023/07/30 07:12:18;;;;;;;21.50;4.40;;;;;;;-145.18;100.00;46648.69;5011945;28;20378;-71
2023/07/30 07:14:43;;;;;;;19.83;5.27;;;;;;;-145.18;100.00;46646.72;5031698;28;20034;-71
2023/07/30 07:17:09;;;;;;;13.67;4.30;;;;;;;-145.18;100.00;46650.63;5026046;28;20396;-71
2023/07/30 07:19:36;;;;;;;22.07;5.43;;;;;;;-145.18;100.00;46654.53;5027680;28;20036;-71
2023/07/30 07:22:03;;;;;;;33.57;5.13;;;;;;;-145.18;100.00;46650.63;5031204;28;20029;-71
2023/07/30 07:24:29;;;;;;;17.30;4.37;;;;;;;-145.18;100.00;46652.59;5033937;28;20108;-71
2023/07/30 07:26:54;;;;;;;19.00;5.70;;;;;;;-145.18;100.00;46652.59;5032963;28;20532;-71
2023/07/30 07:29:20;;;;;;;20.93;4.67;;;;;;;-145.18;100.00;46652.59;5026533;28;20025;-71
2023/07/30 07:31:45;;;;;;;21.47;5.20;;;;;;;-145.18;100.00;46652.59;5025619;28;20112;-71
2023/07/30 07:34:10;;;;;;;20.60;4.40;;;;;;;-145.18;100.00;46662.34;5027214;28;20085;-71
2023/07/30 07:36:37;;;;;;;19.07;4.40;;;;;;;-145.18;100.00;46662.34;5032929;28;20443;-71
2023/07/30 07:39:03;;;;;;;22.10;3.70;;;;;;;-145.18;100.00;46658.44;5009772;28;20113;-71
2023/07/30 07:41:28;;;;;;;21.23;3.80;;;;;;;-145.18;100.00;46660.41;5030523;28;20104;-71
2023/07/30 07:43:54;;;;;;;20.77;4.07;;;;;;;-145.18;100.00;46664.31;5033161;28;20055;-71
2023/07/30 07:46:19;;;;;;;16.83;4.33;;;;;;;-145.18;100.00;46666.25;5026262;28;20025;-71
2023/07/30 07:48:44;;;;;;;21.07;4.63;;;;;;;-145.18;100.00;46670.16;5025594;28;20064;-71
2023/07/30 07:51:10;;;;;;;13.57;3.67;;;;;;;-145.18;100.00;46668.22;5027771;28;20029;-71
2023/07/30 07:53:37;;;;;;;13.23;3.17;;;;;;;-145.18;100.00;46666.25;5014574;28;20030;-71
2023/07/30 07:56:03;;;;;;;13.93;3.40;;;;;;;-145.18;100.00;46672.13;5026974;28;20041;-71
2023/07/30 07:58:29;;;;;;;14.97;3.23;;;;;;;-145.18;100.00;46668.22;5025901;28;20037;-71
2023/07/30 08:00:55;;;;;;;23.83;3.93;;;;;;;-145.18;100.00;46670.16;5025200;28;20037;-71
2023/07/30 08:03:21;;;;;;;16.07;3.30;;;;;;;-145.18;100.00;46672.13;5023570;28;20137;-65
2023/07/30 08:05:47;;;;;;;19.80;4.60;;;;;;;-145.18;100.00;46674.06;5023420;28;20120;-65
2023/07/30 08:08:12;;;;;;;19.37;3.67;;;;;;;-145.18;100.00;46674.06;5026826;28;20037;-65
2023/07/30 08:10:39;;;;;;;15.63;3.50;;;;;;;-145.18;100.00;46676.03;5030683;28;20713;-65
2023/07/30 08:13:05;;;;;;;20.53;3.60;;;;;;;-145.18;100.00;46674.06;5028624;28;20112;-65
2023/07/30 08:15:30;;;;;;;12.60;3.30;;;;;;;-145.18;100.00;46674.06;5024600;28;20092;-65
2023/07/30 08:17:55;;;;;;;18.70;4.53;;;;;;;-145.18;100.00;46672.13;5011539;28;20044;-65
2023/07/30 08:20:21;;;;;;;21.33;3.73;;;;;;;-145.18;100.00;46670.16;5028311;28;20481;-65
2023/07/30 08:22:46;;;;;;;17.77;3.50;;;;;;;-145.18;100.00;46672.13;5027236;28;20112;-65
2023/07/30 08:25:12;;;;;;;17.80;4.27;;;;;;;-145.18;100.00;46674.06;5028787;28;20497;-65
2023/07/30 08:27:37;;;;;;;21.43;4.30;;;;;;;-145.18;100.00;46676.03;5027973;28;20091;-64
2023/07/30 08:30:03;;;;;;;15.77;4.33;;;;;;;-145.18;100.00;46664.31;5027578;28;20029;-64
2023/07/30 08:32:28;;;;;;;18.30;5.03;;;;;;;-145.18;100.00;46668.22;5028475;28;20084;-64
2023/07/30 08:34:54;;;;;;;18.80;3.60;;;;;;;-145.18;100.00;46662.34;5029865;28;20029;-65
2023/07/30 08:37:19;;;;;;;16.40;3.77;;;;;;;-145.18;100.00;46668.22;5025155;28;20083;-65
2023/07/30 08:39:44;;;;;;;14.97;4.00;;;;;;;-145.18;100.00;46668.22;5029855;28;20057;-65
2023/07/30 08:42:10;;;;;;;15.23;3.77;;;;;;;-145.18;100.00;46666.25;5031820;28;20021;-65
2023/07/30 08:44:35;;;;;;;18.33;3.60;;;;;;;-145.18;100.00;46670.16;5025357;28;20057;-65
2023/07/30 08:47:01;;;;;;;15.83;3.10;;;;;;;-145.18;100.00;46668.22;5008970;28;20041;-65
2023/07/30 08:49:32;;;;;;;11.37;2.83;;;;;;;-145.18;100.00;46666.25;5019407;28;20503;-65
2023/07/30 08:51:59;;;;;;;15.27;3.27;;;;;;;-145.18;100.00;46672.13;5015537;28;20045;-65
2023/07/30 08:54:29;;;;;;;13.63;3.20;;;;;;;-145.18;100.00;46670.16;5022094;28;20040;-65
2023/07/30 08:56:54;;;;;;;15.70;3.33;;;;;;;-145.18;100.00;46674.06;5023868;28;20036;-65
2023/07/30 08:59:21;;;;;;;11.43;3.00;;;;;;;-145.18;100.00;46674.06;5031926;28;20029;-65
2023/07/30 09:01:51;;;;;;;14.07;3.10;;;;;;;-145.18;100.00;46674.06;5026776;28;20033;-65
2023/07/30 09:04:18;;;;;;;7.47;2.97;;;;;;;-145.18;100.00;46679.94;5026373;28;20093;-65
2023/07/30 09:06:43;;;;;;;16.30;3.07;;;;;;;-145.18;100.00;46681.88;5027160;28;20029;-65
2023/07/30 09:09:11;;;;;;;12.80;2.50;;;;;;;-145.18;100.00;46679.94;5010957;28;20037;-65
2023/07/30 09:11:37;;;;;;;10.30;2.60;;;;;;;-145.18;100.00;46683.84;5026206;28;20037;-71
2023/07/30 09:14:02;;;;;;;7.67;2.47;;;;;;;-145.18;100.00;46670.16;5031700;28;20380;-71
2023/07/30 09:16:28;;;;;;;14.77;2.80;;;;;;;-145.18;100.00;46672.13;5031872;28;20496;-71
2023/07/30 09:18:54;;;;;;;15.40;2.80;;;;;;;-145.18;100.00;46677.97;5030663;28;20369;-71
2023/07/30 09:21:28;;;;;;;10.67;1.97;;;;;;;-145.18;100.00;46601.78;5008041;28;20044;-71
2023/07/30 09:23:54;;;;;;;8.83;2.10;;;;;;;-145.18;100.00;46562.72;5030351;28;20018;-71
2023/07/30 09:26:19;;;;;;;12.80;2.50;;;;;;;-145.18;100.00;46554.91;5025021;28;20095;-71
2023/07/30 09:28:45;;;;;;;9.90;2.60;;;;;;;-145.18;100.00;46558.81;5031350;28;20029;-71
2023/07/30 09:31:10;;;;;;;10.13;2.20;;;;;;;-145.18;100.00;46554.91;5024204;28;20030;-71
2023/07/30 09:33:41;;;;;;;12.00;2.17;;;;;;;-145.18;100.00;46558.81;5013748;28;20112;-71
2023/07/30 09:36:09;;;;;;;11.70;2.57;;;;;;;-145.18;100.00;46560.78;5023603;28;20501;-72
2023/07/30 09:38:53;;;;;;;11.33;1.87;;;;;;;-145.18;100.00;46558.81;5027075;28;20038;-71
2023/07/30 09:41:18;;;;;;;10.03;2.70;;;;;;;-145.18;100.00;46584.22;5013582;28;20041;-71
2023/07/30 09:43:44;;;;;;;6.40;2.13;;;;;;;-145.18;100.00;46633.06;5031765;28;20021;-71
2023/07/30 09:46:10;;;;;;;9.77;2.67;;;;;;;-145.18;100.00;46656.50;5013631;28;20041;-71
2023/07/30 09:48:35;;;;;;;7.40;2.43;;;;;;;-145.18;100.00;46652.59;5025243;28;20516;-71
2023/07/30 09:51:03;;;;;;;8.67;2.37;;;;;;;-145.18;100.00;46666.25;5029147;28;20075;-71
2023/07/30 09:53:36;;;;;;;7.13;2.07;;;;;;;-145.18;100.00;46676.03;5030171;28;20057;-71
2023/07/30 09:56:08;;;;;;;13.03;2.30;;;;;;;-145.18;100.00;46674.06;5032974;28;20037;-71
2023/07/30 09:58:36;;;;;;;8.73;2.00;;;;;;;-145.18;100.00;46662.34;5015920;28;20025;-71
2023/07/30 10:01:04;;;;;;;8.50;1.83;;;;;;;-145.18;100.00;46656.50;5034260;28;20037;-71
2023/07/30 10:03:30;;;;;;;8.90;2.00;;;;;;;-145.18;100.00;46660.41;5029119;28;20081;-71
2023/07/30 10:06:03;;;;;;;9.03;2.13;;;;;;;-145.18;100.00;46627.19;5035300;28;20061;-71
2023/07/30 10:08:32;;;;;;;10.63;1.90;;;;;;;-145.18;100.00;46588.13;5035308;28;20033;-70
2023/07/30 10:11:00;;;;;;;9.27;2.03;;;;;;;-145.18;100.00;46582.25;5034571;28;20033;-70
2023/07/30 10:13:26;;;;;;;6.13;1.90;;;;;;;-145.18;100.00;46560.78;5035378;28;20057;-70
2023/07/30 10:15:52;;;;;;;8.67;2.63;;;;;;;-145.18;100.00;46554.91;5028909;28;20025;-71
2023/07/30 10:18:19;;;;;;;7.70;2.53;;;;;;;-145.18;100.00;46554.91;5033853;28;20119;-71
2023/07/30 10:20:55;;;;;;;8.73;2.73;;;;;;;-145.18;100.00;46558.81;5034075;28;20084;-71
2023/07/30 10:23:20;;;;;;;9.27;1.90;;;;;;;-145.18;100.00;46556.88;5035473;28;20021;-66
2023/07/30 10:25:51;;;;;;;6.97;1.80;;;;;;;-145.18;100.00;46566.63;5034546;28;20476;-66
2023/07/30 10:28:29;;;;;;;8.23;1.70;;;;;;;-145.18;100.00;46578.34;5034877;28;20040;-66
2023/07/30 10:31:03;;;;;;;7.03;1.67;;;;;;;-145.18;100.00;46566.63;5027943;28;20036;-66
2023/07/30 10:33:51;;;;;;;8.80;1.70;;;;;;;-145.18;100.00;46554.91;5034586;28;20029;-65
2023/07/30 10:36:26;;;;;;;9.87;1.60;;;;;;;-145.18;100.00;46560.78;5034711;28;20263;-66
2023/07/30 10:38:52;;;;;;;13.35;1.50;;;;;;;-145.18;100.00;46676.03;5034618;28;20049;-66
2023/07/30 10:41:20;;;;;;;8.77;1.63;;;;;;;-145.18;100.00;46861.59;5033094;28;20124;-66
2023/07/30 10:43:49;;;;;;;6.90;1.77;;;;;;;-145.18;100.00;46799.09;5034634;28;20101;-66
2023/07/30 10:46:17;;;;;;;6.40;1.30;;;;;;;-145.18;100.00;46672.13;5033498;28;20025;-66
2023/07/30 10:48:46;;;;;;;8.00;1.83;;;;;;;-145.18;100.00;46636.94;5034516;28;20077;-66
2023/07/30 10:51:15;;;;;;;6.57;1.23;;;;;;;-145.18;100.00;46595.94;5033641;28;20037;-65
2023/07/30 10:53:48;;;;;;;9.60;1.40;;;;;;;-145.18;100.00;46576.41;5030072;28;20060;-65
2023/07/30 10:56:16;;;;;;;4.43;1.70;;;;;;;-145.18;100.00;46646.72;5029329;28;20125;-65
2023/07/30 10:58:42;;;;;;;6.57;1.23;;;;;;;-145.18;100.00;46652.59;5040095;28;20032;-65
2023/07/30 11:01:09;;;;;;;6.83;1.70;;;;;;;-145.18;100.00;46592.03;5026795;28;20389;-66
2023/07/30 11:03:35;;;;;;;7.93;1.27;;;;;;;-145.18;100.00;46601.78;5032800;28;20068;-66
2023/07/30 11:06:02;;;;;;;7.60;1.70;;;;;;;-145.18;100.00;46931.91;5037871;28;20084;-66
2023/07/30 11:08:39;;;;;;;7.00;1.30;;;;;;;-145.18;100.00;47137.03;5034009;28;20040;-66
2023/07/30 11:11:06;;;;;;;7.53;1.40;;;;;;;-145.18;100.00;47076.47;5033563;28;20481;-66
2023/07/30 11:13:40;;;;;;;8.07;1.60;;;;;;;-145.18;100.00;47076.47;5015934;28;20048;-66
2023/07/30 11:16:07;;;;;;;3.40;1.10;;;;;;;-145.18;100.00;47074.53;5026431;28;20025;-66
2023/07/30 11:18:34;;;;;;;4.70;1.20;;;;;;;-145.18;100.00;47053.03;5032646;28;20500;-66
2023/07/30 11:21:14;;;;;;;7.70;1.30;;;;;;;-145.18;100.00;47082.34;5032605;28;20469;-66
2023/07/30 11:23:41;;;;;;;3.67;1.20;;;;;;;-145.18;100.00;47096.00;5032194;28;20512;-66
2023/07/30 11:26:08;;;;;;;7.60;1.50;;;;;;;-145.18;100.00;47076.47;5033165;28;20033;-66
2023/07/30 11:28:34;;;;;;;7.93;1.60;;;;;;;-145.18;100.00;47133.13;5033668;28;20480;-66
2023/07/30 11:31:19;;;;;;;8.83;1.27;;;;;;;-145.18;100.00;47131.19;5037374;28;20427;-66
2023/07/30 11:33:46;;;;;;;7.77;1.40;;;;;;;-145.18;100.00;47209.31;5031497;28;20057;-66
2023/07/30 11:36:18;;;;;;;7.07;1.50;;;;;;;-145.18;100.00;47258.16;5032558;28;20728;-65
2023/07/30 11:38:45;;;;;;;3.33;1.00;;;;;;;-145.18;100.00;47205.41;5030043;28;20184;-66
2023/07/30 11:41:11;;;;;;;5.03;1.27;;;;;;;-145.18;100.00;47199.56;5028665;28;20542;-66
2023/07/30 11:43:41;;;;;;;5.80;1.10;;;;;;;-145.18;100.00;47189.78;5033474;28;20025;-66
2023/07/30 11:46:08;;;;;;;10.30;1.33;;;;;;;-145.18;100.00;47039.34;5033164;28;20504;-66
2023/07/30 11:48:35;;;;;;;5.87;1.53;;;;;;;-145.18;100.00;46734.63;5031834;28;20068;-66
2023/07/30 11:51:00;;;;;;;6.77;1.67;;;;;;;-145.18;100.00;46703.38;5032354;28;20507;-66
2023/07/30 11:53:49;;;;;;;6.70;1.33;;;;;;;-145.18;100.00;47166.34;5015391;28;20112;-66
2023/07/30 11:56:35;;;;;;;7.80;1.13;;;;;;;-145.18;100.00;47187.84;5033138;28;20040;-66
2023/07/30 11:59:04;;;;;;;3.67;1.17;;;;;;;-145.18;100.00;47205.41;5033062;28;20041;-66
2023/07/30 12:01:34;;;;;;;3.93;1.13;;;;;;;-145.18;100.00;47053.03;5032403;28;20067;-66
2023/07/30 12:04:00;;;;;;;5.73;1.77;;;;;;;-145.18;100.00;47047.19;5031854;28;20053;-66
2023/07/30 12:06:44;;;;;;;6.10;1.03;;;;;;;-145.18;100.00;47039.34;5032899;28;20037;-66
2023/07/30 12:09:14;;;;;;;6.60;1.47;;;;;;;-145.18;100.00;47023.72;5023910;28;20041;-66
2023/07/30 12:11:52;;;;;;;9.83;1.77;;;;;;;-145.18;100.00;47031.53;5028396;28;20036;-66
2023/07/30 12:14:19;;;;;;;6.90;1.27;;;;;;;-145.18;100.00;47027.63;5026933;28;20041;-66
2023/07/30 12:16:44;;;;;;;6.73;1.30;;;;;;;-145.18;100.00;47010.06;5026333;28;20473;-66
2023/07/30 12:19:10;;;;;;;8.30;1.70;;;;;;;-145.18;100.00;47015.91;5013785;28;20083;-66
2023/07/30 12:21:36;;;;;;;7.47;1.10;;;;;;;-145.18;100.00;47006.16;5032393;28;20039;-66
2023/07/30 12:24:01;;;;;;;5.80;0.80;;;;;;;-145.18;100.00;47096.00;5032786;28;20021;-66
2023/07/30 12:26:27;;;;;;;5.70;1.17;;;;;;;-145.18;100.00;47125.31;5032736;28;20389;-66
2023/07/30 12:28:52;;;;;;;4.10;1.30;;;;;;;-145.18;100.00;47158.53;5031942;28;20041;-66
2023/07/30 12:31:17;;;;;;;6.33;1.10;;;;;;;-145.18;100.00;47230.81;5032527;28;20075;-66
2023/07/30 12:33:43;;;;;;;6.60;1.67;;;;;;;-145.18;100.00;47244.50;5032515;28;20749;-66
2023/07/30 12:36:08;;;;;;;4.60;1.30;;;;;;;-145.18;100.00;47117.50;5014504;28;20025;-66
2023/07/30 12:38:34;;;;;;;5.17;1.43;;;;;;;-145.18;100.00;46836.19;5031577;28;20035;-66
2023/07/30 12:40:59;;;;;;;8.43;1.20;;;;;;;-145.18;100.00;47258.16;5014861;28;20026;-66
2023/07/30 12:43:25;;;;;;;3.43;1.20;;;;;;;-145.18;100.00;47164.38;5031406;28;20380;-66
2023/07/30 12:45:50;;;;;;;5.77;1.10;;;;;;;-145.18;100.00;47105.78;5035161;28;20084;-66
2023/07/30 12:48:16;;;;;;;3.37;1.10;;;;;;;-145.18;100.00;47092.09;5032320;28;20091;-65
2023/07/30 12:50:41;;;;;;;2.93;0.90;;;;;;;-145.18;100.00;47084.28;5032607;28;20524;-67
2023/07/30 12:53:06;;;;;;;5.47;1.23;;;;;;;-145.18;100.00;47097.97;5032356;28;20496;-66
2023/07/30 12:55:32;;;;;;;5.57;1.33;;;;;;;-145.18;100.00;47113.59;5032439;28;20448;-66
2023/07/30 12:57:58;;;;;;;4.53;0.83;;;;;;;-145.18;100.00;47129.22;5032031;28;20092;-67
2023/07/30 13:00:24;;;;;;;5.90;1.13;;;;;;;-145.18;100.00;47066.72;5033035;28;20107;-67
2023/07/30 13:02:52;;;;;;;6.03;1.20;;;;;;;-145.18;100.00;47041.31;5035978;28;20461;-67
2023/07/30 13:05:17;;;;;;;3.80;1.10;;;;;;;-145.18;100.00;47027.63;5031893;28;20037;-67
2023/07/30 13:07:43;;;;;;;4.33;1.20;;;;;;;-145.18;100.00;47004.19;5017219;28;20036;-67
2023/07/30 13:10:09;;;;;;;4.50;1.40;;;;;;;-145.18;100.00;47021.78;5031698;28;20033;-67
2023/07/30 13:12:35;;;;;;;1.80;0.80;;;;;;;-145.18;100.00;47004.19;5031707;28;20021;-67
2023/07/30 13:15:01;;;;;;;5.50;1.23;;;;;;;-145.18;100.00;47047.19;5032052;28;20038;-67
2023/07/30 13:17:27;;;;;;;7.57;1.17;;;;;;;-145.18;100.00;47035.44;5031665;28;20037;-67
2023/07/30 13:19:52;;;;;;;3.07;1.00;;;;;;;-145.18;100.00;47086.25;5032212;28;20032;-66
2023/07/30 13:22:18;;;;;;;4.53;1.40;;;;;;;-145.18;100.00;47096.00;5031608;28;20099;-67
2023/07/30 13:24:43;;;;;;;4.67;1.00;;;;;;;-145.18;100.00;47025.69;5032168;28;20037;-67
2023/07/30 13:27:09;;;;;;;5.97;0.90;;;;;;;-145.18;100.00;47062.81;5033763;28;20048;-67
2023/07/30 13:29:34;;;;;;;3.70;1.33;;;;;;;-145.18;100.00;47074.53;5036271;28;20037;-67
2023/07/30 13:32:00;;;;;;;5.50;1.53;;;;;;;-145.18;100.00;47015.91;5044302;28;20544;-67
2023/07/30 13:34:25;;;;;;;7.30;1.30;;;;;;;-145.18;100.00;47058.91;5017911;28;20037;-67
2023/07/30 13:36:51;;;;;;;6.43;1.10;;;;;;;-145.18;100.00;47025.69;5035696;28;20069;-67
2023/07/30 13:39:16;;;;;;;10.10;1.87;;;;;;;-145.18;100.00;47051.09;5033295;28;20378;-67
2023/07/30 13:41:42;;;;;;;2.70;0.90;;;;;;;-145.18;100.00;47066.72;5034475;28;20025;-67
2023/07/30 13:44:08;;;;;;;7.47;1.50;;;;;;;-145.18;100.00;47051.09;5035782;28;20024;-67
2023/07/30 13:46:33;;;;;;;8.10;1.93;;;;;;;-145.18;100.00;47010.06;5018081;28;20037;-67
2023/07/30 13:48:59;;;;;;;9.13;1.60;;;;;;;-145.18;100.00;47078.44;5035843;28;20120;-67
2023/07/30 13:51:24;;;;;;;3.93;1.40;;;;;;;-145.18;100.00;47039.34;5035851;28;20108;-67
2023/07/30 13:53:49;;;;;;;5.90;1.30;;;;;;;-145.18;100.00;47066.72;5035786;28;20477;-67
2023/07/30 13:56:15;;;;;;;6.30;1.10;;;;;;;-145.18;100.00;47088.19;5035420;28;20041;-67
2023/07/30 13:58:40;;;;;;;12.57;1.63;;;;;;;-145.18;100.00;47062.81;5035526;28;20030;-67
2023/07/30 14:01:06;;;;;;;9.77;1.70;;;;;;;-145.18;100.00;47062.81;4994674;28;20069;-67
2023/07/30 14:03:32;;;;;;;6.07;1.67;;;;;;;-145.18;100.00;47012.00;5028241;28;20056;-67
2023/07/30 14:05:58;;;;;;;6.57;1.50;;;;;;;-145.18;100.00;47021.78;5030848;28;20473;-67
2023/07/30 14:08:23;;;;;;;4.30;1.20;;;;;;;-145.18;100.00;47027.63;5032452;28;20382;-67
2023/07/30 14:10:49;;;;;;;6.67;1.37;;;;;;;-145.18;100.00;47068.66;5032585;28;20033;-67
2023/07/30 14:13:14;;;;;;;9.60;1.60;;;;;;;-145.18;100.00;47043.28;5031761;28;20033;-67
2023/07/30 14:15:39;;;;;;;6.37;1.40;;;;;;;-145.18;100.00;47025.69;5020610;28;20473;-67
2023/07/30 14:18:05;;;;;;;8.53;1.77;;;;;;;-145.18;100.00;47039.34;5011341;28;20045;-67
2023/07/30 14:20:30;;;;;;;10.87;2.07;;;;;;;-145.18;100.00;47062.81;5023862;28;20040;-67
2023/07/30 14:23:01;;;;;;;6.53;1.50;;;;;;;-145.18;100.00;47070.63;5035758;28;20037;-67
2023/07/30 14:25:26;;;;;;;4.40;1.33;;;;;;;-145.18;100.00;47056.94;5029359;28;20405;-67
2023/07/30 14:27:52;;;;;;;13.33;1.70;;;;;;;-145.18;100.00;47070.63;5039458;28;20033;-67
2023/07/30 14:30:17;;;;;;;8.00;1.57;;;;;;;-145.18;100.00;47076.47;5026642;28;20041;-67
2023/07/30 14:32:42;;;;;;;8.50;1.57;;;;;;;-145.18;100.00;47076.47;5029690;28;20048;-67
2023/07/30 14:35:08;;;;;;;6.53;1.33;;;;;;;-145.18;100.00;47074.53;5039728;28;20507;-67
2023/07/30 14:37:33;;;;;;;4.63;1.23;;;;;;;-145.18;100.00;47066.72;5033580;28;20077;-67
2023/07/30 14:39:59;;;;;;;4.77;1.33;;;;;;;-145.18;100.00;47062.81;5033614;28;20030;-67
2023/07/30 14:42:24;;;;;;;7.20;1.93;;;;;;;-145.18;100.00;47084.28;5034166;28;20488;-67
2023/07/30 14:44:49;;;;;;;6.97;1.80;;;;;;;-145.18;100.00;47064.75;5016246;28;20034;-67
2023/07/30 14:47:15;;;;;;;9.47;1.63;;;;;;;-145.18;100.00;47070.63;4999608;28;20188;-67
2023/07/30 14:49:40;;;;;;;6.13;1.90;;;;;;;-145.18;100.00;47064.75;5034104;28;20040;-67
2023/07/30 14:52:06;;;;;;;11.93;1.57;;;;;;;-145.18;100.00;47062.81;5015832;28;20029;-67
2023/07/30 14:54:31;;;;;;;7.33;1.60;;;;;;;-145.18;100.00;47064.75;5033477;28;20025;-67
2023/07/30 14:56:56;;;;;;;8.47;1.53;;;;;;;-145.18;100.00;47062.81;5034012;28;20029;-67
2023/07/30 14:59:22;;;;;;;6.80;2.07;;;;;;;-145.18;100.00;47058.91;5033840;28;20033;-67
2023/07/30 15:01:47;;;;;;;6.47;1.67;;;;;;;-145.18;100.00;47043.28;5032564;28;20033;-67
2023/07/30 15:04:13;;;;;;;9.93;1.67;;;;;;;-145.18;100.00;47041.31;5033075;28;20075;-66
2023/07/30 15:06:39;;;;;;;8.00;1.57;;;;;;;-145.18;100.00;47045.22;5015521;28;20048;-67
2023/07/30 15:09:04;;;;;;;7.63;1.97;;;;;;;-145.18;100.00;47068.66;5033514;28;20025;-67
2023/07/30 15:11:29;;;;;;;4.70;1.57;;;;;;;-145.18;100.00;47072.56;5034191;28;20093;-67
2023/07/30 15:13:55;;;;;;;7.00;1.50;;;;;;;-145.18;100.00;47084.28;5033919;28;20034;-67
2023/07/30 15:16:20;;;;;;;14.10;2.10;;;;;;;-145.18;100.00;47094.06;5034662;28;20064;-67
2023/07/30 15:18:45;;;;;;;8.20;1.63;;;;;;;-145.18;100.00;47078.44;5012864;28;20018;-67
2023/07/30 15:21:14;;;;;;;5.33;1.80;;;;;;;-145.18;100.00;47086.25;5009998;28;20040;-67
2023/07/30 15:23:43;;;;;;;10.57;2.40;;;;;;;-145.18;100.00;47076.47;5028992;28;20021;-67
2023/07/30 15:26:08;;;;;;;7.73;2.00;;;;;;;-145.18;100.00;47080.38;5032551;28;20467;-67
2023/07/30 15:28:34;;;;;;;7.47;2.03;;;;;;;-145.18;100.00;47078.44;5032279;28;20116;-67
2023/07/30 15:30:59;;;;;;;8.73;2.07;;;;;;;-145.18;100.00;47090.16;5033543;28;20087;-67
2023/07/30 15:33:25;;;;;;;5.67;1.70;;;;;;;-145.18;100.00;47051.09;5015533;28;20026;-67
2023/07/30 15:35:50;;;;;;;7.80;2.00;;;;;;;-145.18;100.00;47090.16;5033642;28;20053;-67
2023/07/30 15:38:16;;;;;;;5.37;1.53;;;;;;;-145.18;100.00;47109.69;5032905;28;20056;-67
2023/07/30 15:40:42;;;;;;;16.23;2.63;;;;;;;-145.18;100.00;47111.66;5031767;28;20025;-67
2023/07/30 15:43:08;;;;;;;8.43;2.37;;;;;;;-145.18;100.00;47113.59;5032677;28;20091;-67
2023/07/30 15:45:35;;;;;;;16.30;2.33;;;;;;;-145.18;100.00;47119.47;5010807;28;20029;-67
2023/07/30 15:48:01;;;;;;;10.00;2.27;;;;;;;-145.18;100.00;47150.72;5028644;28;20029;-67
2023/07/30 15:50:26;;;;;;;17.33;3.00;;;;;;;-145.18;100.00;47146.81;5031348;28;20026;-67
2023/07/30 15:52:53;;;;;;;6.13;1.70;;;;;;;-145.18;100.00;47215.19;5007608;28;20057;-66
2023/07/30 15:55:20;;;;;;;13.13;2.83;;;;;;;-145.18;100.00;47236.66;5032314;28;20044;-67
2023/07/30 15:57:45;;;;;;;9.20;2.47;;;;;;;-145.18;100.00;47181.97;5032902;28;20072;-67
2023/07/30 16:00:14;;;;;;;7.23;1.97;;;;;;;-145.18;100.00;47027.63;5032477;28;20508;-67
2023/07/30 16:02:41;;;;;;;12.77;2.70;;;;;;;-145.18;100.00;46957.31;5033401;28;20032;-67
2023/07/30 16:05:06;;;;;;;7.30;2.03;;;;;;;-145.18;100.00;46842.06;5032500;28;20505;-66
2023/07/30 16:07:33;;;;;;;7.10;1.70;;;;;;;-145.18;100.00;46642.81;5032901;28;20064;-67
2023/07/30 16:09:59;;;;;;;7.77;3.07;;;;;;;-145.18;100.00;46640.88;5032922;28;20060;-67
2023/07/30 16:12:24;;;;;;;6.57;2.13;;;;;;;-145.18;100.00;46627.19;5034547;28;20021;-72
2023/07/30 16:14:53;;;;;;;8.67;2.57;;;;;;;-145.18;100.00;46662.34;5032966;28;20600;-71
2023/07/30 16:17:19;;;;;;;12.30;2.77;;;;;;;-145.18;100.00;46646.72;5032831;28;20120;-72
2023/07/30 16:19:44;;;;;;;6.77;2.20;;;;;;;-145.18;100.00;46654.53;5032782;28;20461;-72
2023/07/30 16:22:09;;;;;;;10.10;2.30;;;;;;;-145.18;100.00;46636.94;5016187;28;20024;-71
2023/07/30 16:24:35;;;;;;;9.83;2.00;;;;;;;-145.18;100.00;46625.22;5011432;28;20500;-71
2023/07/30 16:27:01;;;;;;;7.23;2.20;;;;;;;-145.18;100.00;46609.59;5032377;28;20033;-72
2023/07/30 16:29:26;;;;;;;7.60;2.10;;;;;;;-145.18;100.00;46588.13;5032457;28;20174;-72
2023/07/30 16:31:52;;;;;;;14.53;2.57;;;;;;;-145.18;100.00;46584.22;5032739;28;20116;-72
2023/07/30 16:34:17;;;;;;;15.30;2.63;;;;;;;-145.18;100.00;46595.94;5032656;28;20037;-72
2023/07/30 16:36:42;;;;;;;8.63;2.27;;;;;;;-145.18;100.00;46584.22;5032622;28;20480;-72
2023/07/30 16:39:09;;;;;;;10.87;2.60;;;;;;;-145.18;100.00;46576.41;5032932;28;20080;-72
2023/07/30 16:41:34;;;;;;;6.93;2.57;;;;;;;-145.18;100.00;46586.16;5031445;28;20075;-72
2023/07/30 16:44:00;;;;;;;13.20;2.90;;;;;;;-145.18;100.00;46584.22;5014654;28;20451;-72
2023/07/30 16:46:25;;;;;;;14.00;2.47;;;;;;;-145.18;100.00;46582.25;5032306;28;20392;-71
2023/07/30 16:48:50;;;;;;;9.13;2.97;;;;;;;-145.18;100.00;46576.41;5032077;28;20053;-72
2023/07/30 16:51:16;;;;;;;6.67;1.60;;;;;;;-145.18;100.00;46572.50;5014380;28;20067;-71
2023/07/30 16:53:41;;;;;;;6.43;1.80;;;;;;;-145.18;100.00;46621.31;5032246;28;20503;-72
2023/07/30 16:56:14;;;;;;;3.13;1.50;;;;;;;-145.18;100.00;46654.53;5032194;28;20064;-71